Time;durP1;ratioP1;P1;durP2;ratioP2;P2;SDS_P1;SDS_P2;PMS_P1;PMS_P2;Temp;Humidity;BMP_temperature;BMP_pressure;BME280_temperature;BME280_humidity;BME280_pressure;Samples;Min_cycle;Max_cycle;Signal;HPM_P1;HPM_P2
2023/06/24 00:00:00;;;;;;;22.40;15.00;;;;;;;;;;5072567;28;20044;-58
2023/06/24 00:02:26;;;;;;;22.27;14.48;;;;;;;;;;5072340;28;20024;-57
2023/06/24 00:04:52;;;;;;;21.33;15.15;;;;;;;;;;5054095;28;20032;-56
2023/06/24 00:07:21;;;;;;;20.48;13.55;;;;;;;;;;5072400;28;20032;-58
2023/06/24 00:09:47;;;;;;;21.95;14.65;;;;;;;;;;5072173;28;20024;-57
2023/06/24 00:12:18;;;;;;;21.90;13.32;;;;;;;;;;5072262;28;20033;-57
2023/06/24 00:14:45;;;;;;;22.33;13.70;;;;;;;;;;5071973;28;20103;-58
2023/06/24 00:17:11;;;;;;;22.48;14.15;;;;;;;;;;5072030;28;20020;-58
2023/06/24 00:19:37;;;;;;;21.50;14.98;;;;;;;;;;5072181;28;20036;-54
2023/06/24 00:22:03;;;;;;;22.27;14.35;;;;;;;;;;5072234;28;20427;-53
2023/06/24 00:24:29;;;;;;;21.75;14.32;;;;;;;;;;5071541;28;20454;-58
2023/06/24 00:26:55;;;;;;;22.10;14.43;;;;;;;;;;5072048;28;20388;-56
2023/06/24 00:29:21;;;;;;;22.73;14.75;;;;;;;;;;5072005;28;20055;-58
2023/06/24 00:31:48;;;;;;;24.10;15.15;;;;;;;;;;5071835;28;20028;-53
2023/06/24 00:34:14;;;;;;;23.92;15.20;;;;;;;;;;5053675;28;20055;-58
2023/06/24 00:36:40;;;;;;;21.52;14.65;;;;;;;;;;5077356;28;20032;-58
2023/06/24 00:39:06;;;;;;;22.90;15.32;;;;;;;;;;5086603;28;20012;-55
2023/06/24 00:41:32;;;;;;;22.65;15.57;;;;;;;;;;5089291;28;20476;-55
2023/06/24 00:43:58;;;;;;;22.35;15.90;;;;;;;;;;5091834;28;20391;-54
2023/06/24 00:46:25;;;;;;;24.17;14.50;;;;;;;;;;5091911;28;20032;-56
2023/06/24 00:48:57;;;;;;;22.23;15.20;;;;;;;;;;5091977;28;20038;-55
2023/06/24 00:51:34;;;;;;;22.02;15.05;;;;;;;;;;5091727;28;20063;-57
2023/06/24 00:54:00;;;;;;;23.00;15.68;;;;;;;;;;5091563;28;20035;-57
2023/06/24 00:56:28;;;;;;;22.08;15.43;;;;;;;;;;5091734;28;20022;-60
2023/06/24 00:58:55;;;;;;;21.85;15.30;;;;;;;;;;5091772;28;20388;-58
2023/06/24 01:01:20;;;;;;;22.02;14.95;;;;;;;;;;5091747;28;20472;-59
2023/06/24 01:03:47;;;;;;;24.35;15.60;;;;;;;;;;5091690;28;20035;-56
2023/06/24 01:06:14;;;;;;;23.88;15.02;;;;;;;;;;5091546;28;20076;-56
2023/06/24 01:08:40;;;;;;;22.30;15.13;;;;;;;;;;5091890;28;20369;-57
2023/06/24 01:11:06;;;;;;;24.67;14.75;;;;;;;;;;5086646;28;20380;-54
2023/06/24 01:13:32;;;;;;;22.25;15.13;;;;;;;;;;5075410;28;20012;-53
2023/06/24 01:16:00;;;;;;;24.00;15.45;;;;;;;;;;5078559;28;20024;-57
2023/06/24 01:18:33;;;;;;;20.73;14.65;;;;;;;;;;5072025;28;20044;-59
2023/06/24 01:21:06;;;;;;;22.60;14.52;;;;;;;;;;5072639;28;20037;-58
2023/06/24 01:23:51;;;;;;;25.05;15.35;;;;;;;;;;5071792;28;20074;-56
2023/06/24 01:26:17;;;;;;;24.75;15.30;;;;;;;;;;5071341;28;20361;-56
2023/06/24 01:28:56;;;;;;;23.45;14.90;;;;;;;;;;5071424;28;20070;-56
2023/06/24 01:31:37;;;;;;;22.95;15.70;;;;;;;;;;5071051;28;21015;-56
2023/06/24 01:34:15;;;;;;;28.02;16.75;;;;;;;;;;5053327;28;20028;-54
2023/06/24 01:36:44;;;;;;;24.48;16.35;;;;;;;;;;5071516;28;20032;-55
2023/06/24 01:39:11;;;;;;;25.77;16.45;;;;;;;;;;5071349;28;20021;-57
2023/06/24 01:41:43;;;;;;;23.48;15.52;;;;;;;;;;5053523;28;20032;-54
2023/06/24 01:44:12;;;;;;;21.73;15.15;;;;;;;;;;5071083;28;20476;-57
2023/06/24 01:46:39;;;;;;;23.83;15.57;;;;;;;;;;5071349;28;20036;-56
2023/06/24 01:49:07;;;;;;;22.20;15.15;;;;;;;;;;5074408;28;20430;-56
2023/06/24 01:51:33;;;;;;;;;;;;;;;;;;5075400;28;20033;-54
2023/06/24 01:54:01;;;;;;;22.92;14.35;;;;;;;;;;5074943;28;19908;-53
2023/06/24 01:56:29;;;;;;;22.83;15.25;;;;;;;;;;5074954;28;20020;-57
2023/06/24 01:58:56;;;;;;;23.05;15.55;;;;;;;;;;5074978;28;20029;-55
2023/06/24 02:01:23;;;;;;;26.70;16.02;;;;;;;;;;5074838;28;20024;-55
2023/06/24 02:03:50;;;;;;;22.17;14.85;;;;;;;;;;5074849;28;20100;-56
2023/06/24 02:06:17;;;;;;;25.10;16.13;;;;;;;;;;5056710;28;20035;-55
2023/06/24 02:08:43;;;;;;;23.05;15.15;;;;;;;;;;5074654;28;20392;-57
2023/06/24 02:11:09;;;;;;;23.58;15.85;;;;;;;;;;5074629;28;20111;-57
2023/06/24 02:13:36;;;;;;;23.92;15.52;;;;;;;;;;5074685;28;20031;-55
2023/06/24 02:16:03;;;;;;;24.42;16.52;;;;;;;;;;5074212;28;20017;-57
2023/06/24 02:18:30;;;;;;;23.95;15.50;;;;;;;;;;5056538;28;20167;-59
2023/06/24 02:20:56;;;;;;;22.60;15.65;;;;;;;;;;5074612;28;20501;-56
2023/06/24 02:23:23;;;;;;;25.42;15.57;;;;;;;;;;5074526;28;20035;-58
2023/06/24 02:25:49;;;;;;;28.00;16.27;;;;;;;;;;5056510;28;20028;-54
2023/06/24 02:28:16;;;;;;;27.10;17.13;;;;;;;;;;5074642;28;20037;-56
2023/06/24 02:30:42;;;;;;;24.15;16.05;;;;;;;;;;5074460;28;20033;-52
2023/06/24 02:33:11;;;;;;;44.45;37.08;;;;;;;;;;5074233;28;20025;-55
2023/06/24 02:35:37;;;;;;;33.67;26.73;;;;;;;;;;5056204;28;20550;-56
2023/06/24 02:38:03;;;;;;;38.65;30.10;;;;;;;;;;5074377;28;20038;-54
2023/06/24 02:40:29;;;;;;;22.08;15.68;;;;;;;;;;5074221;28;20036;-57
2023/06/24 02:42:56;;;;;;;28.45;16.55;;;;;;;;;;5074067;28;20470;-52
2023/06/24 02:45:22;;;;;;;24.02;17.00;;;;;;;;;;5074060;28;20025;-58
2023/06/24 02:47:48;;;;;;;24.50;16.50;;;;;;;;;;5074220;28;20028;-53
2023/06/24 02:50:15;;;;;;;24.42;17.13;;;;;;;;;;5074543;28;20025;-53
2023/06/24 02:52:41;;;;;;;23.65;15.90;;;;;;;;;;5056553;28;20071;-55
2023/06/24 02:55:07;;;;;;;26.48;16.77;;;;;;;;;;5074379;28;20025;-60
2023/06/24 02:57:35;;;;;;;25.95;16.33;;;;;;;;;;5074336;28;20021;-59
2023/06/24 03:00:02;;;;;;;25.55;16.20;;;;;;;;;;5073636;28;20031;-60
2023/06/24 03:02:28;;;;;;;23.92;16.45;;;;;;;;;;5073782;28;20021;-57
2023/06/24 03:04:54;;;;;;;26.13;16.08;;;;;;;;;;5055544;28;20070;-58
2023/06/24 03:07:20;;;;;;;23.60;16.13;;;;;;;;;;5073799;28;20036;-55
2023/06/24 03:09:47;;;;;;;22.67;16.02;;;;;;;;;;5073610;28;20607;-56
2023/06/24 03:12:12;;;;;;;30.75;15.80;;;;;;;;;;5073632;28;20056;-59
2023/06/24 03:14:38;;;;;;;24.13;16.10;;;;;;;;;;5073089;28;20059;-57
2023/06/24 03:17:05;;;;;;;23.48;16.10;;;;;;;;;;5073461;28;20115;-58
2023/06/24 03:19:31;;;;;;;24.08;16.60;;;;;;;;;;5055366;28;20027;-55
2023/06/24 03:21:57;;;;;;;23.50;17.27;;;;;;;;;;5073406;28;20028;-57
2023/06/24 03:24:23;;;;;;;24.65;17.00;;;;;;;;;;5055050;28;20032;-54
2023/06/24 03:26:55;;;;;;;22.50;15.52;;;;;;;;;;5055710;28;20025;-55
2023/06/24 03:29:22;;;;;;;23.77;16.45;;;;;;;;;;5073047;28;20086;-59
2023/06/24 03:31:48;;;;;;;23.65;16.17;;;;;;;;;;5072737;28;20028;-54
2023/06/24 03:34:16;;;;;;;23.00;15.20;;;;;;;;;;5072801;28;20049;-52
2023/06/24 03:36:42;;;;;;;24.60;15.43;;;;;;;;;;5073284;28;20099;-52
2023/06/24 03:39:08;;;;;;;22.42;15.85;;;;;;;;;;5073316;28;20052;-54
2023/06/24 03:41:34;;;;;;;28.80;16.90;;;;;;;;;;5073031;28;20056;-55
2023/06/24 03:44:00;;;;;;;31.48;16.40;;;;;;;;;;5054834;28;20032;-55
2023/06/24 03:46:28;;;;;;;24.42;16.23;;;;;;;;;;5072788;28;20025;-54
2023/06/24 03:48:54;;;;;;;23.73;16.50;;;;;;;;;;5072776;28;20366;-56
2023/06/24 03:51:20;;;;;;;23.00;15.50;;;;;;;;;;5072720;28;20507;-55
2023/06/24 03:53:46;;;;;;;24.63;17.08;;;;;;;;;;5072908;28;20477;-57
2023/06/24 03:56:12;;;;;;;25.65;16.65;;;;;;;;;;5072634;28;20029;-57
2023/06/24 03:58:38;;;;;;;23.40;15.13;;;;;;;;;;5072852;28;20469;-54
2023/06/24 04:01:04;;;;;;;23.35;15.13;;;;;;;;;;5072767;28;20045;-57
2023/06/24 04:03:31;;;;;;;21.33;15.23;;;;;;;;;;5054888;28;20135;-56
2023/06/24 04:05:57;;;;;;;23.65;16.25;;;;;;;;;;5072586;28;20445;-56
2023/06/24 04:08:25;;;;;;;24.48;15.25;;;;;;;;;;5072479;28;20060;-54
2023/06/24 04:10:51;;;;;;;24.65;16.60;;;;;;;;;;5071695;28;20031;-53
2023/06/24 04:13:18;;;;;;;24.20;16.73;;;;;;;;;;5054267;28;20435;-58
2023/06/24 04:15:44;;;;;;;23.85;15.32;;;;;;;;;;5072300;28;20104;-58
2023/06/24 04:18:10;;;;;;;25.23;15.85;;;;;;;;;;5072348;28;20020;-55
2023/06/24 04:20:36;;;;;;;21.48;15.23;;;;;;;;;;5072164;28;20032;-55
2023/06/24 04:23:02;;;;;;;25.02;16.77;;;;;;;;;;5054026;28;20024;-56
2023/06/24 04:25:28;;;;;;;22.13;15.88;;;;;;;;;;5071990;28;20035;-55
2023/06/24 04:27:54;;;;;;;25.63;15.98;;;;;;;;;;5054159;28;20028;-51
2023/06/24 04:30:20;;;;;;;23.85;15.27;;;;;;;;;;5071994;28;20113;-57
2023/06/24 04:32:46;;;;;;;22.08;14.95;;;;;;;;;;5072090;28;20473;-56
2023/06/24 04:35:12;;;;;;;22.13;15.93;;;;;;;;;;5071720;28;20028;-56
2023/06/24 04:37:38;;;;;;;23.98;16.35;;;;;;;;;;5071833;28;20023;-58
2023/06/24 04:40:04;;;;;;;23.92;16.27;;;;;;;;;;5071888;28;20067;-54
2023/06/24 04:42:30;;;;;;;22.52;15.88;;;;;;;;;;5053777;28;20028;-58
2023/06/24 04:44:56;;;;;;;25.60;16.73;;;;;;;;;;5071425;28;20029;-60
2023/06/24 04:47:22;;;;;;;28.10;17.52;;;;;;;;;;5071759;28;20153;-58
2023/06/24 04:49:48;;;;;;;26.85;18.98;;;;;;;;;;5071667;28;20547;-55
2023/06/24 04:52:14;;;;;;;24.27;17.63;;;;;;;;;;5071520;28;20020;-56
2023/06/24 04:54:40;;;;;;;24.88;16.48;;;;;;;;;;5071318;28;20473;-56
2023/06/24 04:57:09;;;;;;;23.10;16.15;;;;;;;;;;5071633;28;20020;-56
2023/06/24 04:59:36;;;;;;;;;;;;;;;;;;5073015;28;20043;-58
2023/06/24 05:02:02;;;;;;;23.92;16.40;;;;;;;;;;5074723;28;19905;-57
2023/06/24 05:04:28;;;;;;;25.13;16.67;;;;;;;;;;5075146;28;20020;-59
2023/06/24 05:06:54;;;;;;;25.88;17.70;;;;;;;;;;5075377;28;20066;-59
2023/06/24 05:09:20;;;;;;;23.35;16.73;;;;;;;;;;5075699;28;20029;-54
2023/06/24 05:11:46;;;;;;;24.33;16.92;;;;;;;;;;5071758;28;20520;-55
2023/06/24 05:14:12;;;;;;;24.73;16.05;;;;;;;;;;5071032;28;20074;-57
2023/06/24 05:16:38;;;;;;;23.85;16.20;;;;;;;;;;5071693;28;20025;-53
2023/06/24 05:19:04;;;;;;;23.45;16.77;;;;;;;;;;5071490;28;20072;-53
2023/06/24 05:21:30;;;;;;;24.65;16.75;;;;;;;;;;5073006;28;20036;-56
2023/06/24 05:23:56;;;;;;;24.05;17.13;;;;;;;;;;5074857;28;20033;-58
2023/06/24 05:26:22;;;;;;;22.25;15.63;;;;;;;;;;5057297;28;20112;-59
2023/06/24 05:28:48;;;;;;;22.48;16.27;;;;;;;;;;5075098;28;20031;-58
2023/06/24 05:31:14;;;;;;;23.80;16.48;;;;;;;;;;5075250;28;20103;-59
2023/06/24 05:33:40;;;;;;;24.00;17.83;;;;;;;;;;5075171;28;20079;-56
2023/06/24 05:36:06;;;;;;;23.55;17.10;;;;;;;;;;5074809;28;20020;-59
2023/06/24 05:38:32;;;;;;;22.23;15.95;;;;;;;;;;5075134;28;20020;-57
2023/06/24 05:40:58;;;;;;;23.15;16.15;;;;;;;;;;5075004;28;20120;-60
2023/06/24 05:43:25;;;;;;;23.75;16.55;;;;;;;;;;5074921;28;20507;-60
2023/06/24 05:45:51;;;;;;;22.02;15.65;;;;;;;;;;5074717;28;20040;-58
2023/06/24 05:48:17;;;;;;;26.63;16.20;;;;;;;;;;5075053;28;20131;-60
2023/06/24 05:50:43;;;;;;;25.17;16.55;;;;;;;;;;5075019;28;20090;-60
2023/06/24 05:53:09;;;;;;;23.20;15.70;;;;;;;;;;5074739;28;20020;-60
2023/06/24 05:55:35;;;;;;;26.25;16.27;;;;;;;;;;5074492;28;20538;-54
2023/06/24 05:58:01;;;;;;;21.45;16.02;;;;;;;;;;5074532;28;20028;-54
2023/06/24 06:00:27;;;;;;;23.05;15.63;;;;;;;;;;5074610;28;20035;-58
2023/06/24 06:02:55;;;;;;;23.80;17.25;;;;;;;;;;5056636;28;20020;-55
2023/06/24 06:05:21;;;;;;;26.38;17.30;;;;;;;;;;5074338;28;20075;-57
2023/06/24 06:07:48;;;;;;;23.50;16.65;;;;;;;;;;5074513;28;20033;-56
2023/06/24 06:10:17;;;;;;;24.83;16.23;;;;;;;;;;5074577;28;20035;-54
2023/06/24 06:12:43;;;;;;;23.17;15.85;;;;;;;;;;5074573;28;20017;-55
2023/06/24 06:15:09;;;;;;;23.70;16.38;;;;;;;;;;5074110;28;20028;-57
2023/06/24 06:17:35;;;;;;;23.75;16.98;;;;;;;;;;5074153;28;20043;-57
2023/06/24 06:20:01;;;;;;;21.77;15.05;;;;;;;;;;5074500;28;20365;-58
2023/06/24 06:22:27;;;;;;;22.20;14.45;;;;;;;;;;5056217;28;20025;-57
2023/06/24 06:24:53;;;;;;;22.00;14.05;;;;;;;;;;5073749;28;20093;-57
2023/06/24 06:27:20;;;;;;;23.30;16.17;;;;;;;;;;5056377;28;20439;-57
2023/06/24 06:29:45;;;;;;;23.23;15.80;;;;;;;;;;5074079;28;20036;-59
2023/06/24 06:32:12;;;;;;;23.13;14.27;;;;;;;;;;5073928;28;20024;-56
2023/06/24 06:34:38;;;;;;;21.77;15.38;;;;;;;;;;5073057;28;20020;-57
2023/06/24 06:37:04;;;;;;;20.35;15.00;;;;;;;;;;5078513;28;20031;-57
2023/06/24 06:39:30;;;;;;;24.63;15.50;;;;;;;;;;5077040;28;20025;-55
2023/06/24 06:41:56;;;;;;;20.42;14.57;;;;;;;;;;5082794;28;20028;-59
2023/06/24 06:44:22;;;;;;;23.48;15.93;;;;;;;;;;5075366;28;20028;-58
2023/06/24 06:46:48;;;;;;;22.17;15.43;;;;;;;;;;5081375;28;20052;-57
2023/06/24 06:49:14;;;;;;;23.15;15.52;;;;;;;;;;5078767;28;20403;-58
2023/06/24 06:51:40;;;;;;;24.35;15.77;;;;;;;;;;5085131;28;20025;-54
2023/06/24 06:54:06;;;;;;;22.30;16.17;;;;;;;;;;5090985;28;20093;-57
2023/06/24 06:56:32;;;;;;;21.38;15.43;;;;;;;;;;5073285;28;20033;-57
2023/06/24 06:58:58;;;;;;;20.90;14.95;;;;;;;;;;5073896;28;20482;-59
2023/06/24 07:01:24;;;;;;;20.77;15.07;;;;;;;;;;5089100;28;20039;-57
2023/06/24 07:03:50;;;;;;;21.10;15.13;;;;;;;;;;5084917;28;20476;-59
2023/06/24 07:06:19;;;;;;;22.90;15.35;;;;;;;;;;5093528;28;20027;-58
2023/06/24 07:08:44;;;;;;;;;;;;;;;;;;5094005;28;20076;-58
2023/06/24 07:11:10;;;;;;;22.17;15.00;;;;;;;;;;5091056;28;19962;-58
2023/06/24 07:13:36;;;;;;;21.33;15.07;;;;;;;;;;5073200;28;20016;-56
2023/06/24 07:16:02;;;;;;;21.60;14.40;;;;;;;;;;5073054;28;20024;-50
2023/06/24 07:18:30;;;;;;;21.05;15.40;;;;;;;;;;5072993;28;20017;-54
2023/06/24 07:20:56;;;;;;;19.88;14.27;;;;;;;;;;5073245;28;20024;-56
2023/06/24 07:23:22;;;;;;;22.02;14.10;;;;;;;;;;5072554;28;20499;-54
2023/06/24 07:25:48;;;;;;;23.05;16.63;;;;;;;;;;5072616;28;20028;-57
2023/06/24 07:28:14;;;;;;;21.77;15.40;;;;;;;;;;5072980;28;20028;-50
2023/06/24 07:30:41;;;;;;;22.65;15.07;;;;;;;;;;5072717;28;20594;-53
2023/06/24 07:33:08;;;;;;;21.58;14.40;;;;;;;;;;5054782;28;20024;-56
2023/06/24 07:35:34;;;;;;;19.92;15.13;;;;;;;;;;5072463;28;20031;-50
2023/06/24 07:38:00;;;;;;;22.15;14.98;;;;;;;;;;5066961;28;20381;-53
2023/06/24 07:40:26;;;;;;;21.67;14.15;;;;;;;;;;5052940;28;20032;-52
2023/06/24 07:42:53;;;;;;;21.27;15.48;;;;;;;;;;5052800;28;20025;-49
2023/06/24 07:45:19;;;;;;;24.38;16.45;;;;;;;;;;5051221;28;20439;-52
2023/06/24 07:47:45;;;;;;;21.00;15.43;;;;;;;;;;5052503;28;20025;-50
2023/06/24 07:50:11;;;;;;;20.98;15.13;;;;;;;;;;5052453;28;20059;-56
2023/06/24 07:52:38;;;;;;;21.90;15.85;;;;;;;;;;5052639;28;20078;-51
2023/06/24 07:55:04;;;;;;;22.63;16.55;;;;;;;;;;5051784;28;20104;-55
2023/06/24 07:57:31;;;;;;;22.92;15.32;;;;;;;;;;5052210;28;20422;-50
2023/06/24 07:59:57;;;;;;;25.50;15.85;;;;;;;;;;5052306;28;20501;-52
2023/06/24 08:02:24;;;;;;;24.25;17.38;;;;;;;;;;5052376;28;20123;-49
2023/06/24 08:04:50;;;;;;;22.85;16.90;;;;;;;;;;5051768;28;20393;-53
2023/06/24 08:07:23;;;;;;;25.90;16.88;;;;;;;;;;5088891;27;19913;-54
2023/06/24 08:09:49;;;;;;;23.40;17.77;;;;;;;;;;5089085;28;20499;-50
2023/06/24 08:12:15;;;;;;;23.58;16.95;;;;;;;;;;5088697;28;20035;-52
2023/06/24 08:14:41;;;;;;;24.10;16.60;;;;;;;;;;5073818;28;20068;-56
2023/06/24 08:17:07;;;;;;;22.23;17.13;;;;;;;;;;5068714;28;20024;-49
2023/06/24 08:19:33;;;;;;;24.95;16.58;;;;;;;;;;5068395;28;20036;-51
2023/06/24 08:21:59;;;;;;;24.35;17.13;;;;;;;;;;5068494;28;20465;-52
2023/06/24 08:24:25;;;;;;;23.77;17.58;;;;;;;;;;5068650;28;20043;-53
2023/06/24 08:26:52;;;;;;;29.55;17.27;;;;;;;;;;5068801;28;20036;-55
2023/06/24 08:29:18;;;;;;;23.13;17.40;;;;;;;;;;5068876;28;20082;-55
2023/06/24 08:31:44;;;;;;;25.20;16.98;;;;;;;;;;5067403;28;20021;-51
2023/06/24 08:34:10;;;;;;;25.67;18.65;;;;;;;;;;5068300;28;20024;-54
2023/06/24 08:36:37;;;;;;;24.35;17.48;;;;;;;;;;5067430;28;20029;-52
2023/06/24 08:39:03;;;;;;;24.45;17.83;;;;;;;;;;5068509;28;20177;-50
2023/06/24 08:41:29;;;;;;;27.05;18.92;;;;;;;;;;5067069;28;20115;-51
2023/06/24 08:43:55;;;;;;;24.40;17.67;;;;;;;;;;5067975;28;20312;-53
2023/06/24 08:46:21;;;;;;;23.30;18.25;;;;;;;;;;5066692;28;20028;-55
2023/06/24 08:48:49;;;;;;;24.00;18.80;;;;;;;;;;5067941;28;20496;-53
2023/06/24 08:51:18;;;;;;;23.10;17.95;;;;;;;;;;5068047;28;20314;-53
2023/06/24 08:53:44;;;;;;;25.42;18.40;;;;;;;;;;5067870;28;20394;-51
2023/06/24 08:56:11;;;;;;;23.35;17.80;;;;;;;;;;5067847;28;20322;-53
2023/06/24 08:58:37;;;;;;;25.52;18.63;;;;;;;;;;5068473;28;20028;-65
2023/06/24 09:01:03;;;;;;;26.70;18.40;;;;;;;;;;5067710;28;20461;-56
2023/06/24 09:03:29;;;;;;;24.23;17.40;;;;;;;;;;5066085;28;20382;-59
2023/06/24 09:05:55;;;;;;;23.00;16.88;;;;;;;;;;5075441;28;20107;-58
2023/06/24 09:08:22;;;;;;;22.90;17.42;;;;;;;;;;5087736;28;20012;-58
2023/06/24 09:10:54;;;;;;;22.67;15.82;;;;;;;;;;5087731;28;20103;-57
2023/06/24 09:13:20;;;;;;;22.55;15.75;;;;;;;;;;5069435;28;20069;-58
2023/06/24 09:15:46;;;;;;;23.33;17.30;;;;;;;;;;5087703;28;20053;-56
2023/06/24 09:18:12;;;;;;;21.48;16.88;;;;;;;;;;5077031;28;20430;-57
2023/06/24 09:20:45;;;;;;;22.92;16.50;;;;;;;;;;5074096;28;20033;-59
2023/06/24 09:23:11;;;;;;;23.30;18.05;;;;;;;;;;5056479;28;20490;-60
2023/06/24 09:25:37;;;;;;;22.48;17.30;;;;;;;;;;5073468;28;20115;-59
2023/06/24 09:28:04;;;;;;;24.27;16.92;;;;;;;;;;5073922;28;20025;-59
2023/06/24 09:30:30;;;;;;;22.75;18.35;;;;;;;;;;5073669;28;20043;-57
2023/06/24 09:32:56;;;;;;;23.48;19.15;;;;;;;;;;5073581;28;20424;-54
2023/06/24 09:35:23;;;;;;;22.38;17.17;;;;;;;;;;5073405;28;20033;-57
2023/06/24 09:37:50;;;;;;;22.92;18.25;;;;;;;;;;5073646;28;20070;-58
2023/06/24 09:40:16;;;;;;;22.90;18.15;;;;;;;;;;5073318;28;20124;-60
2023/06/24 09:42:54;;;;;;;24.38;19.95;;;;;;;;;;5073606;28;20086;-59
2023/06/24 09:45:22;;;;;;;24.83;19.63;;;;;;;;;;5073690;28;20483;-61
2023/06/24 09:47:48;;;;;;;24.70;18.52;;;;;;;;;;5055999;28;20039;-60
2023/06/24 09:50:14;;;;;;;23.33;19.05;;;;;;;;;;5072941;28;20112;-60
2023/06/24 09:52:40;;;;;;;25.08;18.17;;;;;;;;;;5073864;28;20112;-60
2023/06/24 09:55:07;;;;;;;23.38;17.20;;;;;;;;;;5073168;28;20410;-58
2023/06/24 09:57:35;;;;;;;21.83;17.45;;;;;;;;;;5055584;28;20032;-59
2023/06/24 10:00:03;;;;;;;22.92;18.50;;;;;;;;;;5065320;28;20031;-58
2023/06/24 10:02:31;;;;;;;22.92;17.92;;;;;;;;;;5072980;28;20078;-59
2023/06/24 10:04:57;;;;;;;22.35;17.85;;;;;;;;;;5073164;28;20051;-57
2023/06/24 10:07:23;;;;;;;22.95;17.50;;;;;;;;;;5073221;28;20079;-60
2023/06/24 10:09:49;;;;;;;22.70;18.73;;;;;;;;;;5072107;28;20025;-54
2023/06/24 10:12:15;;;;;;;23.33;18.73;;;;;;;;;;5066280;28;20438;-58
2023/06/24 10:14:41;;;;;;;22.83;18.52;;;;;;;;;;5072721;28;20090;-55
2023/06/24 10:17:07;;;;;;;22.17;17.23;;;;;;;;;;5073330;28;20025;-57
2023/06/24 10:19:40;;;;;;;23.52;19.30;;;;;;;;;;5072616;28;20020;-56
2023/06/24 10:22:12;;;;;;;22.00;17.38;;;;;;;;;;5072955;28;20047;-58
2023/06/24 10:24:42;;;;;;;22.58;18.08;;;;;;;;;;5071858;28;20025;-56
2023/06/24 10:27:14;;;;;;;21.40;17.70;;;;;;;;;;5063259;28;20042;-57
2023/06/24 10:29:44;;;;;;;21.63;17.58;;;;;;;;;;5071568;28;20021;-55
2023/06/24 10:32:11;;;;;;;20.35;16.70;;;;;;;;;;5072903;28;20029;-57
2023/06/24 10:34:43;;;;;;;22.23;17.98;;;;;;;;;;5072357;28;20380;-54
2023/06/24 10:37:13;;;;;;;23.13;17.63;;;;;;;;;;5072549;28;20089;-56
2023/06/24 10:39:39;;;;;;;22.80;17.98;;;;;;;;;;5072249;28;20484;-59
2023/06/24 10:42:24;;;;;;;22.65;17.50;;;;;;;;;;5072270;28;20455;-57
2023/06/24 10:44:50;;;;;;;23.27;16.35;;;;;;;;;;5071472;28;20495;-57
2023/06/24 10:47:17;;;;;;;22.58;17.13;;;;;;;;;;5072253;28;20158;-57
2023/06/24 10:49:43;;;;;;;22.13;16.67;;;;;;;;;;5072247;28;20024;-58
2023/06/24 10:52:12;;;;;;;21.27;15.93;;;;;;;;;;5072152;28;20024;-58
2023/06/24 10:54:39;;;;;;;21.35;16.73;;;;;;;;;;5054000;28;20016;-57
2023/06/24 10:57:05;;;;;;;22.13;17.65;;;;;;;;;;5072523;28;20043;-58
2023/06/24 10:59:40;;;;;;;22.13;17.10;;;;;;;;;;5071937;28;20020;-59
2023/06/24 11:02:06;;;;;;;22.63;17.95;;;;;;;;;;5072014;28;20346;-58
2023/06/24 11:04:32;;;;;;;21.83;17.02;;;;;;;;;;5071689;28;20036;-57
2023/06/24 11:07:01;;;;;;;23.33;17.15;;;;;;;;;;5072028;28;20051;-56
2023/06/24 11:09:27;;;;;;;23.95;16.80;;;;;;;;;;5072143;28;20096;-58
2023/06/24 11:11:54;;;;;;;23.95;18.13;;;;;;;;;;5072201;28;20047;-59
2023/06/24 11:14:23;;;;;;;23.08;17.35;;;;;;;;;;5071634;28;20067;-58
2023/06/24 11:16:50;;;;;;;24.23;16.85;;;;;;;;;;5071746;28;20025;-58
2023/06/24 11:19:16;;;;;;;19.88;16.83;;;;;;;;;;5071680;28;20042;-55
2023/06/24 11:21:42;;;;;;;23.33;18.30;;;;;;;;;;5072787;28;20059;-58
2023/06/24 11:24:08;;;;;;;22.58;17.98;;;;;;;;;;5072041;28;20024;-58
2023/06/24 11:26:34;;;;;;;21.98;17.88;;;;;;;;;;5071634;28;20477;-57
2023/06/24 11:29:00;;;;;;;24.52;18.40;;;;;;;;;;5071408;28;20025;-55
2023/06/24 11:31:26;;;;;;;22.23;18.15;;;;;;;;;;5071219;28;20487;-55
2023/06/24 11:33:52;;;;;;;20.10;16.52;;;;;;;;;;5071171;28;20021;-57
2023/06/24 11:36:18;;;;;;;18.45;14.23;;;;;;;;;;5071411;28;20059;-56
2023/06/24 11:38:46;;;;;;;19.13;14.80;;;;;;;;;;5071459;28;20108;-59
2023/06/24 11:41:12;;;;;;;20.37;15.47;;;;;;;;;;5071406;28;20032;-55
2023/06/24 11:43:38;;;;;;;18.95;15.43;;;;;;;;;;5071603;28;20024;-59
2023/06/24 11:46:04;;;;;;;18.75;15.20;;;;;;;;;;5071097;28;20365;-56
2023/06/24 11:48:30;;;;;;;19.38;15.93;;;;;;;;;;5071172;28;20032;-53
2023/06/24 11:50:56;;;;;;;21.25;17.20;;;;;;;;;;5071183;28;20032;-53
2023/06/24 11:53:30;;;;;;;21.23;16.10;;;;;;;;;;5070212;28;20021;-57
2023/06/24 11:55:56;;;;;;;19.75;15.55;;;;;;;;;;5065787;28;20032;-58
2023/06/24 11:58:22;;;;;;;19.52;15.85;;;;;;;;;;5071206;28;20020;-57
2023/06/24 12:00:51;;;;;;;20.10;15.80;;;;;;;;;;5071263;28;20210;-58
2023/06/24 12:03:17;;;;;;;18.40;15.40;;;;;;;;;;5071162;28;20033;-55
2023/06/24 12:05:47;;;;;;;19.88;15.45;;;;;;;;;;5070831;28;20040;-57
2023/06/24 12:08:15;;;;;;;21.73;15.05;;;;;;;;;;5071280;28;20027;-53
2023/06/24 12:10:41;;;;;;;18.60;14.63;;;;;;;;;;5071059;28;20024;-59
2023/06/24 12:13:08;;;;;;;22.50;15.77;;;;;;;;;;5071006;28;20489;-57
2023/06/24 12:15:43;;;;;;;18.77;15.09;;;;;;;;;;5031958;28;10000963;-57
2023/06/24 12:18:09;;;;;;;18.25;14.63;;;;;;;;;;5064839;28;20241;-57
2023/06/24 12:20:36;;;;;;;16.75;13.68;;;;;;;;;;5051847;28;20055;-55
2023/06/24 12:23:06;;;;;;;19.77;14.55;;;;;;;;;;5068176;28;20755;-58
2023/06/24 12:25:32;;;;;;;18.25;13.95;;;;;;;;;;5058852;28;20033;-55
2023/06/24 12:28:01;;;;;;;17.25;14.32;;;;;;;;;;5030168;28;20093;-58
2023/06/24 12:30:27;;;;;;;19.23;14.32;;;;;;;;;;5048052;28;20059;-58
2023/06/24 12:32:53;;;;;;;18.25;14.50;;;;;;;;;;5048730;28;20060;-58
2023/06/24 12:35:19;;;;;;;17.90;14.52;;;;;;;;;;4717128;28;10000155;-59
2023/06/24 12:37:45;;;;;;;18.33;15.00;;;;;;;;;;5048698;28;20124;-56
2023/06/24 12:40:11;;;;;;;17.77;14.30;;;;;;;;;;5058481;28;20086;-55
2023/06/24 12:42:37;;;;;;;17.15;14.18;;;;;;;;;;5069618;28;20024;-50
2023/06/24 12:45:03;;;;;;;19.15;16.13;;;;;;;;;;5067207;28;20032;-54
2023/06/24 12:47:29;;;;;;;18.15;14.68;;;;;;;;;;5069807;28;20035;-57
2023/06/24 12:49:55;;;;;;;17.52;14.93;;;;;;;;;;5069932;28;20634;-57
2023/06/24 12:52:21;;;;;;;17.67;14.57;;;;;;;;;;5070534;28;20035;-54
2023/06/24 12:54:47;;;;;;;18.48;14.68;;;;;;;;;;5055206;28;20031;-53
2023/06/24 12:57:14;;;;;;;17.88;15.18;;;;;;;;;;5074268;28;20028;-48
2023/06/24 12:59:40;;;;;;;19.02;14.98;;;;;;;;;;5056291;28;20129;-51
2023/06/24 13:02:06;;;;;;;18.00;15.40;;;;;;;;;;5074154;28;20096;-49
2023/06/24 13:04:32;;;;;;;19.63;15.57;;;;;;;;;;5073791;28;20020;-53
2023/06/24 13:06:58;;;;;;;19.15;14.57;;;;;;;;;;5073793;28;20025;-56
2023/06/24 13:09:24;;;;;;;17.95;15.25;;;;;;;;;;5073945;28;20431;-54
2023/06/24 13:11:51;;;;;;;18.30;14.60;;;;;;;;;;5074328;28;20016;-51
2023/06/24 13:14:17;;;;;;;19.05;14.45;;;;;;;;;;5072879;28;20017;-52
2023/06/24 13:16:43;;;;;;;20.00;15.23;;;;;;;;;;5073463;28;20449;-52
2023/06/24 13:19:15;;;;;;;17.52;13.58;;;;;;;;;;4935254;28;10001008;-55
2023/06/24 13:21:41;;;;;;;17.10;14.02;;;;;;;;;;5070932;28;20252;-51
2023/06/24 13:24:08;;;;;;;17.38;14.32;;;;;;;;;;5053148;28;20040;-55
2023/06/24 13:26:34;;;;;;;17.80;14.98;;;;;;;;;;5071613;28;20029;-51
2023/06/24 13:29:00;;;;;;;18.05;14.40;;;;;;;;;;5071421;28;20039;-51
2023/06/24 13:31:26;;;;;;;18.02;14.60;;;;;;;;;;5071319;28;20028;-53
2023/06/24 13:33:52;;;;;;;18.52;14.30;;;;;;;;;;5070916;28;20024;-50
2023/06/24 13:36:29;;;;;;;18.73;14.60;;;;;;;;;;5071078;28;20055;-55
2023/06/24 13:38:55;;;;;;;18.58;14.30;;;;;;;;;;5071421;28;20029;-53
2023/06/24 13:41:21;;;;;;;19.73;14.45;;;;;;;;;;5071460;28;20040;-51
2023/06/24 13:43:47;;;;;;;18.80;14.55;;;;;;;;;;5071449;28;20056;-53
2023/06/24 13:46:13;;;;;;;17.27;14.52;;;;;;;;;;5071764;28;20519;-55
2023/06/24 13:48:39;;;;;;;17.90;14.63;;;;;;;;;;5073009;28;20024;-53
2023/06/24 13:51:06;;;;;;;18.05;14.70;;;;;;;;;;5071912;28;20024;-58
2023/06/24 13:53:32;;;;;;;16.98;14.27;;;;;;;;;;5071467;28;20029;-56
2023/06/24 13:55:58;;;;;;;16.90;13.85;;;;;;;;;;5072371;28;20033;-55
2023/06/24 13:58:24;;;;;;;17.95;14.55;;;;;;;;;;5072004;28;20048;-52
2023/06/24 14:00:50;;;;;;;17.35;13.77;;;;;;;;;;5071141;28;20146;-50
2023/06/24 14:03:16;;;;;;;18.40;13.85;;;;;;;;;;5053009;28;20040;-54
2023/06/24 14:05:42;;;;;;;16.70;13.70;;;;;;;;;;5070822;28;20526;-54
2023/06/24 14:08:08;;;;;;;18.33;14.00;;;;;;;;;;5071035;28;20025;-53
2023/06/24 14:10:34;;;;;;;16.95;13.88;;;;;;;;;;5070842;28;20503;-53
2023/06/24 14:13:00;;;;;;;16.95;13.60;;;;;;;;;;5071601;28;20028;-55
2023/06/24 14:15:26;;;;;;;16.67;13.48;;;;;;;;;;5071936;28;20027;-56